Time;durP1;ratioP1;P1;durP2;ratioP2;P2;SDS_P1;SDS_P2;PMS_P1;PMS_P2;Temp;Humidity;BMP_temperature;BMP_pressure;BME280_temperature;BME280_humidity;BME280_pressure;Samples;Min_cycle;Max_cycle;Signal;HPM_P1;HPM_P2
2021/06/18 00:00:51;;;;;;;7.88;4.80;;;21.70;60.50;;;20.94;58.43;95782.59;4967578;28;20043;-67
2021/06/18 00:03:17;;;;;;;6.93;4.18;;;21.70;61.00;;;20.91;58.33;95780.44;4962160;28;20034;-66
2021/06/18 00:05:43;;;;;;;7.78;4.60;;;21.60;61.10;;;20.84;57.92;95780.69;4972624;28;20065;-65
2021/06/18 00:08:08;;;;;;;6.05;4.68;;;21.60;61.00;;;20.83;58.44;95778.28;4944091;28;20116;-66
2021/06/18 00:10:34;;;;;;;5.72;5.10;;;21.60;60.90;;;20.79;58.02;95780.66;4982402;28;20130;-67
2021/06/18 00:13:00;;;;;;;7.47;4.80;;;21.60;60.90;;;20.78;58.41;95777.16;4941204;28;20468;-66
2021/06/18 00:15:26;;;;;;;5.93;4.60;;;21.60;60.90;;;20.75;58.34;95777.69;4966106;28;20067;-67
2021/06/18 00:17:52;;;;;;;6.95;4.40;;;21.60;60.70;;;20.74;58.59;95780.63;4950969;28;20115;-66
2021/06/18 00:20:18;;;;;;;9.82;4.93;;;21.60;61.00;;;20.70;58.69;95775.00;4933854;28;20404;-66
2021/06/18 00:22:43;;;;;;;6.15;5.07;;;21.60;60.90;;;20.69;58.60;95778.75;4967807;28;20186;-66
2021/06/18 00:25:10;;;;;;;7.22;4.57;;;21.50;60.90;;;20.68;57.76;95776.34;4959054;28;20031;-66
2021/06/18 00:27:36;;;;;;;7.35;4.30;;;21.50;61.10;;;20.65;58.77;95768.84;4984693;28;20043;-67
2021/06/18 00:30:04;;;;;;;5.88;4.82;;;21.50;61.10;;;20.66;58.59;95770.44;4968831;28;20069;-67
2021/06/18 00:32:29;;;;;;;6.55;4.68;;;21.50;61.20;;;20.62;59.26;95772.84;4969956;28;20073;-67
2021/06/18 00:34:55;;;;;;;8.60;5.07;;;21.50;61.50;;;20.61;58.76;95765.09;4968715;28;20051;-66
2021/06/18 00:37:21;;;;;;;7.72;4.90;;;21.50;61.70;;;20.58;58.38;95766.38;4967830;28;20030;-67
2021/06/18 00:39:47;;;;;;;7.47;5.10;;;21.50;61.70;;;20.57;59.14;95766.66;4936560;28;20059;-66
2021/06/18 00:42:12;;;;;;;6.68;5.35;;;21.40;62.00;;;20.55;59.69;95766.91;4940510;28;20098;-67
2021/06/18 00:44:38;;;;;;;6.82;5.28;;;21.40;62.00;;;20.53;59.01;95771.72;4972238;28;20027;-67
2021/06/18 00:47:04;;;;;;;8.35;5.38;;;21.40;62.30;;;20.51;59.03;95768.50;4969602;28;20050;-67
2021/06/18 00:49:30;;;;;;;8.13;5.43;;;21.40;62.50;;;20.50;59.49;95766.88;4951470;28;20046;-66
2021/06/18 00:51:57;;;;;;;8.40;5.78;;;21.30;62.30;;;20.43;59.36;95752.97;4978314;28;20035;-66
2021/06/18 00:54:29;;;;;;;6.78;5.60;;;21.30;62.10;;;20.36;59.76;95768.38;4950976;28;20042;-67
2021/06/18 00:56:59;;;;;;;8.00;5.68;;;21.20;61.80;;;20.33;60.58;95760.88;4941543;28;20067;-67
2021/06/18 00:59:25;;;;;;;7.63;5.60;;;21.20;62.00;;;20.29;59.96;95762.47;4952813;28;20050;-67
2021/06/18 01:01:51;;;;;;;7.45;5.72;;;21.10;62.10;;;20.24;59.52;95762.44;4956339;28;20559;-66
2021/06/18 01:04:17;;;;;;;8.70;6.15;;;21.10;62.20;;;20.17;60.28;95755.47;4942226;28;20491;-67
2021/06/18 01:06:44;;;;;;;6.88;6.18;;;21.10;62.50;;;20.12;59.91;95758.06;4937242;28;20090;-67
2021/06/18 01:09:11;;;;;;;7.32;6.13;;;21.00;62.70;;;20.10;60.79;95748.72;4971442;28;20031;-66
2021/06/18 01:12:02;;;;;;;6.60;6.00;;;21.00;63.00;;;20.09;61.25;95763.94;4954939;28;20035;-67
2021/06/18 01:14:56;;;;;;;7.55;6.03;;;21.00;63.10;;;20.10;61.56;95765.53;4954480;28;20045;-67
2021/06/18 01:17:45;;;;;;;9.50;5.80;;;21.10;63.50;;;20.10;62.49;95768.22;4970798;28;20378;-66
2021/06/18 01:20:43;;;;;;;8.77;5.80;;;21.00;63.50;;;20.08;61.56;95765.00;4974949;28;20101;-66
2021/06/18 01:23:27;;;;;;;9.60;6.10;;;21.00;64.00;;;20.07;62.74;95762.59;5001869;28;20042;-67
2021/06/18 01:26:23;;;;;;;7.78;5.75;;;20.90;64.10;;;20.08;61.71;95759.66;4963765;28;20625;-66
2021/06/18 01:28:54;;;;;;;8.57;5.97;;;21.00;64.00;;;20.07;62.97;95757.25;4960195;28;20407;-66
2021/06/18 01:31:25;;;;;;;6.85;6.10;;;21.00;64.30;;;20.07;62.15;95750.03;4968769;28;20404;-67
2021/06/18 01:33:59;;;;;;;12.20;6.22;;;21.00;64.30;;;20.08;62.52;95750.84;4969959;28;20034;-66
2021/06/18 01:36:25;;;;;;;9.57;5.20;;;21.00;64.30;;;20.07;61.92;95747.38;4961350;28;20387;-67
2021/06/18 01:38:51;;;;;;;7.40;5.95;;;21.00;64.30;;;20.06;61.31;95753.78;4955041;28;20098;-67
2021/06/18 01:41:21;;;;;;;11.10;6.70;;;21.00;64.20;;;20.06;62.47;95748.44;4936723;28;20053;-67
2021/06/18 01:43:47;;;;;;;10.27;6.20;;;21.00;64.10;;;20.04;61.81;95750.56;4968323;28;20414;-66
2021/06/18 01:46:15;;;;;;;9.73;6.45;;;21.00;64.30;;;20.04;62.14;95739.88;4968908;28;20057;-67
2021/06/18 01:48:42;;;;;;;8.65;6.22;;;20.90;64.20;;;20.01;62.14;95740.41;4933612;28;20091;-68
2021/06/18 01:51:08;;;;;;;10.32;6.10;;;20.90;64.50;;;19.98;61.31;95740.91;4954622;28;20094;-67
2021/06/18 01:53:34;;;;;;;9.40;6.47;;;20.90;64.70;;;19.95;61.67;95736.09;4963140;28;20040;-67
2021/06/18 01:55:59;;;;;;;7.43;6.25;;;20.80;64.60;;;19.90;62.33;95738.69;4951132;28;20043;-67
2021/06/18 01:58:25;;;;;;;11.57;6.95;;;20.80;64.90;;;19.86;61.74;95732.25;4943076;28;20032;-67
2021/06/18 02:00:51;;;;;;;13.80;6.68;;;20.70;65.10;;;19.81;62.98;95733.03;4955100;28;20047;-67
2021/06/18 02:03:20;;;;;;;7.03;6.32;;;20.70;65.20;;;19.77;62.33;95734.63;4948365;28;20110;-66
2021/06/18 02:05:46;;;;;;;9.50;6.57;;;20.70;65.10;;;19.75;62.81;95730.59;4956632;28;20107;-66
2021/06/18 02:08:13;;;;;;;8.52;6.63;;;20.60;65.20;;;19.71;62.46;95729.50;4937168;28;20032;-66
2021/06/18 02:10:41;;;;;;;6.32;5.72;;;20.60;65.60;;;19.66;62.45;95726.78;4949888;28;20046;-66
2021/06/18 02:13:09;;;;;;;8.45;6.47;;;20.60;65.90;;;19.62;62.72;95731.00;4984254;28;20059;-67
2021/06/18 02:15:42;;;;;;;9.18;6.13;;;20.60;66.20;;;19.56;64.54;95730.97;4969590;28;20062;-67
2021/06/18 02:18:11;;;;;;;7.55;5.80;;;20.50;66.60;;;19.53;63.52;95733.31;4958605;28;20050;-66
2021/06/18 02:20:38;;;;;;;8.48;6.45;;;20.40;66.60;;;19.49;63.06;95730.38;4957992;28;20092;-67
2021/06/18 02:23:06;;;;;;;7.95;6.15;;;20.50;66.80;;;19.47;63.11;95734.34;4983096;28;20043;-67
2021/06/18 02:25:32;;;;;;;7.15;5.72;;;20.40;66.60;;;19.45;63.05;95734.56;4980750;28;20126;-67
2021/06/18 02:27:58;;;;;;;7.90;6.22;;;20.50;66.70;;;19.41;63.61;95730.81;4949021;28;20046;-67
2021/06/18 02:30:24;;;;;;;7.47;6.20;;;20.40;66.80;;;19.39;64.18;95735.59;4963320;28;20075;-67
2021/06/18 02:32:50;;;;;;;7.20;6.32;;;20.40;67.00;;;19.38;63.59;95728.66;4934299;28;20503;-66
2021/06/18 02:35:16;;;;;;;8.10;6.57;;;20.30;67.10;;;19.37;64.47;95740.38;4937173;28;20121;-67
2021/06/18 02:37:41;;;;;;;8.88;6.07;;;20.30;67.20;;;19.34;63.78;95740.88;4964614;28;20130;-66
2021/06/18 02:40:08;;;;;;;6.88;5.95;;;20.30;67.40;;;19.33;64.32;95752.63;4968037;28;20065;-67
2021/06/18 02:42:33;;;;;;;8.55;6.70;;;20.30;67.30;;;19.30;64.63;95760.31;4983939;28;20118;-67
2021/06/18 02:44:59;;;;;;;9.85;6.30;;;20.10;67.30;;;19.24;63.89;95746.13;4968368;28;20630;-67
2021/06/18 02:47:36;;;;;;;10.18;7.03;;;20.10;67.60;;;19.20;65.11;95761.00;4941686;28;20039;-67
2021/06/18 02:50:17;;;;;;;7.38;5.40;;;20.00;67.80;;;19.15;65.14;95755.63;4950142;28;20035;-67
2021/06/18 02:52:58;;;;;;;6.60;5.40;;;20.00;68.10;;;19.07;65.81;95751.56;4984892;28;20220;-66
2021/06/18 02:55:26;;;;;;;;;;;19.90;68.40;;;19.04;66.71;95759.25;4937708;28;20896;-67
2021/06/18 02:58:10;;;;;;;5.13;4.63;;;20.00;68.50;;;18.98;65.90;95759.16;4983956;28;19973;-68
2021/06/18 03:00:36;;;;;;;6.43;4.95;;;19.90;68.50;;;18.93;64.97;95763.66;4953416;28;20097;-66
2021/06/18 03:03:01;;;;;;;6.07;4.88;;;19.80;68.80;;;18.91;65.37;95765.75;4936619;28;20048;-66
2021/06/18 03:05:27;;;;;;;6.13;5.05;;;19.80;68.90;;;18.87;65.31;95767.31;4957581;28;20664;-66
2021/06/18 03:08:03;;;;;;;5.63;4.80;;;19.70;69.00;;;18.81;66.11;95771.78;4945746;28;20083;-65
2021/06/18 03:10:35;;;;;;;9.52;5.25;;;19.70;69.00;;;18.79;67.17;95781.91;4952720;28;20062;-66
2021/06/18 03:13:17;;;;;;;6.43;5.32;;;19.80;69.20;;;18.79;66.42;95776.56;4940183;28;20043;-67
2021/06/18 03:15:44;;;;;;;7.97;5.10;;;19.80;69.00;;;18.76;66.06;95773.56;4968312;28;20062;-68
2021/06/18 03:18:12;;;;;;;7.03;5.07;;;19.70;69.20;;;18.72;65.88;95783.91;4948721;28;20087;-67
2021/06/18 03:20:38;;;;;;;6.30;5.65;;;19.70;69.50;;;18.71;65.84;95779.63;4956399;28;20046;-67
2021/06/18 03:23:06;;;;;;;6.47;5.15;;;19.60;69.50;;;18.72;66.58;95786.59;4941079;28;20114;-67
2021/06/18 03:25:34;;;;;;;7.30;5.55;;;19.70;69.50;;;18.71;66.38;95784.97;4968815;28;20221;-67
2021/06/18 03:28:00;;;;;;;7.20;5.45;;;19.70;69.40;;;18.71;66.69;95786.84;4966899;28;20046;-68
2021/06/18 03:30:26;;;;;;;7.88;5.78;;;19.70;69.40;;;18.67;66.52;95789.19;4968076;28;20042;-67
2021/06/18 03:32:53;;;;;;;9.02;5.50;;;19.60;69.30;;;18.68;66.25;95785.47;4957912;28;20058;-67
2021/06/18 03:35:19;;;;;;;8.43;6.15;;;19.70;69.20;;;18.69;66.65;95792.41;4933136;28;20035;-67
2021/06/18 03:37:45;;;;;;;8.45;5.70;;;19.80;69.10;;;18.71;66.46;95792.97;4964219;28;20460;-66
2021/06/18 03:40:12;;;;;;;9.25;6.57;;;19.80;69.10;;;18.74;66.46;95803.13;4932823;28;20046;-67
2021/06/18 03:42:38;;;;;;;13.18;6.38;;;19.80;68.90;;;18.71;66.72;95800.97;4944348;28;20045;-69
2021/06/18 03:45:05;;;;;;;9.20;5.88;;;19.70;69.30;;;18.69;66.44;95800.41;4949173;28;20478;-70
2021/06/18 03:47:31;;;;;;;8.43;6.40;;;19.60;69.40;;;18.65;66.07;95799.28;4938233;28;20035;-73
2021/06/18 03:49:57;;;;;;;6.30;5.47;;;19.60;69.70;;;18.61;66.35;95795.47;4957646;28;20036;-68
2021/06/18 03:52:23;;;;;;;6.10;5.18;;;19.50;69.90;;;18.58;67.05;95802.09;4955148;28;20050;-74
2021/06/18 03:54:49;;;;;;;5.95;5.20;;;19.50;69.90;;;18.56;66.72;95809.53;4953278;28;20063;-71
2021/06/18 03:57:15;;;;;;;8.90;5.40;;;19.60;69.90;;;18.54;67.11;95811.63;4949787;28;20035;-71
2021/06/18 03:59:41;;;;;;;7.90;4.93;;;19.50;69.90;;;18.52;67.36;95807.59;4947148;28;20059;-66
2021/06/18 04:02:07;;;;;;;7.07;5.60;;;19.60;69.70;;;18.50;66.64;95807.84;4950888;28;20447;-66
2021/06/18 04:04:32;;;;;;;7.75;6.22;;;19.50;70.00;;;18.50;66.53;95794.53;4964151;28;20126;-68
2021/06/18 04:06:59;;;;;;;8.40;5.38;;;19.50;70.00;;;18.50;67.39;95801.72;4944742;28;20032;-66
2021/06/18 04:09:25;;;;;;;9.88;5.85;;;19.60;70.00;;;18.49;67.16;95810.75;4961080;28;20131;-68
2021/06/18 04:11:51;;;;;;;9.35;6.97;;;19.50;70.20;;;18.46;67.15;95805.91;4947276;28;20139;-66
2021/06/18 04:14:16;;;;;;;7.22;5.88;;;19.50;70.40;;;18.47;67.73;95810.19;4946099;28;20043;-66
2021/06/18 04:16:42;;;;;;;9.25;5.93;;;19.50;70.50;;;18.48;67.93;95811.81;4996573;28;20101;-67
2021/06/18 04:19:08;;;;;;;8.48;6.60;;;19.50;70.50;;;18.47;67.86;95805.69;4953532;28;21928;-67
2021/06/18 04:21:34;;;;;;;8.50;6.97;;;19.50;70.70;;;18.48;67.18;95811.81;4951848;28;20518;-67
2021/06/18 04:23:59;;;;;;;9.07;7.43;;;19.50;70.80;;;18.50;67.27;95809.69;4938324;28;20036;-67
2021/06/18 04:26:25;;;;;;;10.73;7.45;;;19.60;70.80;;;18.51;67.57;95800.66;4955256;28;20042;-67
2021/06/18 04:28:51;;;;;;;9.02;6.47;;;19.60;71.00;;;18.51;68.46;95801.47;4966563;28;20063;-67
2021/06/18 04:31:17;;;;;;;15.50;8.55;;;19.60;71.00;;;18.53;68.60;95807.34;4992650;28;20126;-66
2021/06/18 04:33:43;;;;;;;10.38;7.35;;;19.60;71.30;;;18.55;68.19;95807.91;4937399;28;20127;-67
2021/06/18 04:36:08;;;;;;;9.15;7.43;;;19.60;71.20;;;18.59;67.93;95802.91;4953992;28;20101;-67
2021/06/18 04:38:37;;;;;;;12.80;7.68;;;19.70;71.00;;;18.59;69.70;95797.59;4970134;28;20043;-67
2021/06/18 04:41:03;;;;;;;17.33;13.63;;;19.70;71.40;;;18.64;68.75;95800.34;4968579;28;20173;-67
2021/06/18 04:43:29;;;;;;;25.50;19.02;;;19.80;71.50;;;18.67;69.03;95805.19;4930325;29;20131;-68
2021/06/18 04:45:54;;;;;;;35.80;26.38;;;19.80;71.50;;;18.71;69.56;95808.16;4964847;28;20408;-67
2021/06/18 04:48:21;;;;;;;37.17;30.25;;;19.90;71.30;;;18.76;68.62;95803.69;4960370;28;20589;-68
2021/06/18 04:50:47;;;;;;;19.25;15.85;;;20.00;71.40;;;18.80;68.93;95815.47;4962051;28;20455;-68
2021/06/18 04:53:12;;;;;;;21.38;13.88;;;20.10;70.90;;;18.84;68.80;95821.91;4951514;28;20069;-71
2021/06/18 04:55:39;;;;;;;10.95;9.05;;;20.10;71.10;;;18.89;69.36;95824.66;4946067;28;20073;-72
2021/06/18 04:58:05;;;;;;;18.70;13.48;;;20.10;71.00;;;18.94;68.35;95824.69;4986688;28;20435;-69
2021/06/18 05:00:32;;;;;;;22.67;19.77;;;20.10;70.70;;;18.97;68.44;95824.19;4945496;28;20085;-68
2021/06/18 05:02:58;;;;;;;19.63;16.40;;;20.10;70.80;;;19.01;68.53;95823.69;4953098;28;20154;-69
2021/06/18 05:05:24;;;;;;;15.35;11.95;;;20.20;70.40;;;19.05;68.28;95822.19;4956862;28;20122;-68
2021/06/18 05:07:54;;;;;;;11.57;9.07;;;20.30;70.00;;;19.09;68.63;95828.63;4951395;28;20039;-71
2021/06/18 05:10:20;;;;;;;14.95;9.70;;;20.30;69.80;;;19.13;68.91;95829.72;4939257;28;20057;-75
2021/06/18 05:12:46;;;;;;;11.00;9.75;;;20.30;69.80;;;19.16;68.25;95829.22;4967258;28;20114;-75
2021/06/18 05:15:12;;;;;;;11.32;8.13;;;20.50;69.70;;;19.20;67.91;95836.47;4983729;28;20063;-74
2021/06/18 05:17:38;;;;;;;12.75;8.38;;;20.50;69.60;;;19.27;67.42;95837.09;4964339;28;20488;-76
2021/06/18 05:20:05;;;;;;;17.52;13.90;;;20.60;69.30;;;19.35;68.34;95833.16;4960787;28;20150;-68
2021/06/18 05:22:30;;;;;;;16.63;11.93;;;20.70;68.90;;;19.38;67.89;95824.66;4936407;28;20034;-70
2021/06/18 05:24:56;;;;;;;16.20;11.85;;;20.70;68.70;;;19.45;67.89;95833.28;4958724;28;20670;-66
2021/06/18 05:27:22;;;;;;;15.07;11.25;;;20.70;68.60;;;19.51;67.96;95832.28;4951107;28;20086;-64
2021/06/18 05:29:48;;;;;;;17.63;10.65;;;20.80;68.70;;;19.61;67.50;95836.94;4933909;28;20027;-65
2021/06/18 05:32:16;;;;;;;13.57;10.52;;;20.90;68.10;;;19.69;67.27;95838.34;4953321;28;20475;-68
2021/06/18 05:34:45;;;;;;;11.95;10.55;;;21.10;67.90;;;19.80;67.29;95845.41;4950343;28;20190;-64
2021/06/18 05:37:11;;;;;;;12.60;11.30;;;21.30;67.00;;;19.91;67.45;95847.09;4948834;28;20043;-64
2021/06/18 05:39:37;;;;;;;15.25;11.50;;;21.50;66.20;;;20.02;66.10;95851.47;4933138;28;20036;-66
2021/06/18 05:42:03;;;;;;;12.63;11.20;;;21.60;65.40;;;20.15;65.84;95844.91;4948717;28;20039;-66
2021/06/18 05:44:29;;;;;;;14.50;11.23;;;21.80;63.20;;;20.27;66.03;95844.72;4934312;28;20023;-65
2021/06/18 05:46:54;;;;;;;16.63;11.07;;;22.00;63.00;;;20.44;65.76;95851.56;4951486;28;20066;-66
2021/06/18 05:49:20;;;;;;;21.88;10.80;;;22.30;62.20;;;20.67;64.53;95845.03;4966228;28;20035;-66
2021/06/18 05:51:46;;;;;;;14.82;10.60;;;22.40;62.50;;;20.86;64.44;95842.72;4937524;28;20486;-67
2021/06/18 05:54:13;;;;;;;12.25;9.93;;;22.60;61.70;;;21.06;65.00;95836.66;4951429;28;20058;-67
2021/06/18 05:56:40;;;;;;;12.50;8.98;;;22.80;61.20;;;21.28;64.23;95836.50;4952066;28;20039;-67
2021/06/18 05:59:06;;;;;;;17.75;13.80;;;23.10;61.10;;;21.50;63.27;95836.28;4957612;28;20047;-66
2021/06/18 06:01:32;;;;;;;18.23;13.43;;;23.20;60.50;;;21.77;63.85;95836.09;4944522;28;20036;-66
2021/06/18 06:04:00;;;;;;;10.57;9.10;;;23.50;60.10;;;22.01;62.61;95842.53;4934489;28;20042;-67
2021/06/18 06:06:26;;;;;;;12.05;9.38;;;23.60;59.20;;;22.23;62.33;95840.44;4966254;28;20041;-67
2021/06/18 06:08:54;;;;;;;11.50;9.10;;;23.80;59.10;;;22.44;62.24;95846.56;4969223;28;20034;-67
2021/06/18 06:11:21;;;;;;;12.25;9.50;;;24.10;58.90;;;22.64;61.19;95839.59;4952325;28;20038;-66
2021/06/18 06:13:47;;;;;;;11.75;8.98;;;24.20;57.70;;;22.79;61.76;95843.00;4955211;28;20130;-66
2021/06/18 06:16:12;;;;;;;10.73;8.52;;;24.50;57.80;;;23.01;60.37;95847.28;4947075;28;20035;-66
2021/06/18 06:18:38;;;;;;;13.63;9.00;;;24.70;56.60;;;23.21;60.47;95845.31;4953154;28;20046;-66
2021/06/18 06:21:04;;;;;;;11.95;9.30;;;24.90;56.50;;;23.45;59.64;95844.69;4988183;28;20145;-65
2021/06/18 06:23:30;;;;;;;10.77;8.65;;;25.10;55.60;;;23.65;59.59;95843.78;4965790;28;20039;-65
2021/06/18 06:25:56;;;;;;;11.68;8.70;;;25.20;55.20;;;23.81;58.64;95835.38;4954272;28;20408;-65
2021/06/18 06:28:21;;;;;;;12.80;9.35;;;25.40;55.50;;;23.96;57.95;95839.00;4933236;28;20050;-70
2021/06/18 06:30:47;;;;;;;10.80;9.25;;;25.60;54.10;;;24.07;57.74;95837.88;4947894;28;20110;-69
2021/06/18 06:33:13;;;;;;;10.40;8.98;;;25.70;54.20;;;24.19;58.08;95840.97;4949145;28;20122;-68
2021/06/18 06:35:39;;;;;;;11.13;9.35;;;26.00;53.50;;;24.35;57.44;95842.50;4973501;28;20084;-66
2021/06/18 06:38:05;;;;;;;9.88;8.88;;;26.20;52.40;;;24.56;57.07;95837.75;4968554;28;20086;-66
2021/06/18 06:40:30;;;;;;;10.45;8.35;;;26.50;52.00;;;24.76;57.03;95836.75;4945808;28;20063;-66
2021/06/18 06:42:56;;;;;;;10.00;7.75;;;26.70;51.50;;;24.98;56.23;95837.03;4949311;28;20039;-70
2021/06/18 06:45:22;;;;;;;14.13;12.63;;;27.00;51.40;;;25.21;56.25;95840.03;4949254;28;20035;-69
2021/06/18 06:47:50;;;;;;;16.92;14.98;;;27.30;51.00;;;25.43;56.14;95829.53;4933629;28;20113;-68
2021/06/18 06:50:16;;;;;;;13.00;9.18;;;27.60;50.50;;;25.65;55.29;95832.44;4936343;28;20038;-66
2021/06/18 06:52:42;;;;;;;12.30;7.32;;;27.80;49.20;;;25.87;54.90;95841.88;4933407;28;20475;-67
2021/06/18 06:55:09;;;;;;;11.60;7.13;;;28.10;48.60;;;26.10;54.80;95830.19;4930943;28;20114;-66
2021/06/18 06:57:34;;;;;;;13.52;12.15;;;28.30;48.50;;;26.36;54.20;95835.19;4921352;28;20047;-67
2021/06/18 07:00:00;;;;;;;11.75;9.15;;;28.60;47.50;;;26.59;53.37;95833.44;4948177;28;20049;-66
2021/06/18 07:02:26;;;;;;;9.73;6.97;;;29.00;46.30;;;26.79;53.42;95836.59;4948823;28;20066;-67
2021/06/18 07:04:52;;;;;;;9.10;6.97;;;29.20;46.00;;;27.08;53.01;95836.31;4953458;28;20472;-68
2021/06/18 07:07:17;;;;;;;10.52;7.57;;;29.60;46.30;;;27.35;52.38;95827.41;4950821;28;20531;-66
2021/06/18 07:09:43;;;;;;;8.43;6.60;;;29.80;45.40;;;27.62;51.88;95833.88;4950477;28;20492;-66
2021/06/18 07:12:09;;;;;;;10.68;7.10;;;30.00;45.40;;;27.83;51.00;95837.72;4962617;28;20448;-66
2021/06/18 07:14:42;;;;;;;7.35;5.68;;;30.20;43.90;;;28.05;50.67;95843.16;4963284;28;20031;-69
2021/06/18 07:17:08;;;;;;;10.20;6.60;;;30.50;44.00;;;28.29;50.34;95844.81;4961550;28;20448;-68
2021/06/18 07:19:33;;;;;;;8.45;6.10;;;30.70;43.40;;;28.44;49.85;95847.13;4947298;28;20085;-65
2021/06/18 07:21:59;;;;;;;8.75;6.35;;;30.90;43.30;;;28.59;49.17;95835.94;4932095;28;20047;-65
2021/06/18 07:24:25;;;;;;;7.55;6.20;;;31.20;42.40;;;28.77;49.18;95841.44;4931199;28;20415;-65
2021/06/18 07:26:51;;;;;;;9.63;6.93;;;31.40;42.30;;;28.92;48.31;95835.63;4948548;28;20023;-65
2021/06/18 07:29:17;;;;;;;9.85;6.47;;;31.50;41.60;;;29.01;48.18;95839.19;4979895;28;20447;-66
2021/06/18 07:31:43;;;;;;;10.55;7.45;;;31.70;41.80;;;29.17;47.87;95842.25;4952701;28;20063;-68
2021/06/18 07:34:09;;;;;;;11.32;7.05;;;31.50;40.90;;;29.28;47.22;95833.56;4958582;28;20034;-66
2021/06/18 07:36:35;;;;;;;10.90;8.32;;;31.80;41.50;;;29.40;47.22;95834.84;4936258;28;20119;-66
2021/06/18 07:39:01;;;;;;;38.72;27.92;;;32.10;40.10;;;29.57;47.13;95840.34;4950570;28;20070;-65
2021/06/18 07:41:26;;;;;;;15.43;10.20;;;32.20;41.20;;;29.76;46.86;95830.00;4965892;28;20046;-66
2021/06/18 07:43:52;;;;;;;8.23;6.88;;;32.60;39.90;;;30.00;46.64;95834.16;4939517;28;20031;-66
2021/06/18 07:46:20;;;;;;;8.93;6.63;;;32.90;40.70;;;30.15;46.63;95841.84;4979462;28;20567;-66
2021/06/18 07:48:46;;;;;;;8.15;6.45;;;33.00;40.80;;;30.31;46.16;95839.41;4962479;28;20043;-65
2021/06/18 07:51:11;;;;;;;10.35;7.40;;;33.10;39.60;;;30.48;45.99;95840.19;4960339;28;20317;-66
2021/06/18 07:53:37;;;;;;;8.93;6.47;;;33.40;39.20;;;30.65;45.71;95841.31;4966394;28;20121;-66
2021/06/18 07:56:03;;;;;;;10.85;7.10;;;33.60;39.50;;;30.79;45.38;95844.66;4949524;28;20070;-66
2021/06/18 07:58:29;;;;;;;10.00;6.53;;;33.80;38.50;;;30.90;45.31;95847.78;4967997;28;20027;-67
2021/06/18 08:00:55;;;;;;;6.38;5.78;;;33.90;38.00;;;31.01;44.79;95844.41;4959463;28;20184;-69
2021/06/18 08:03:21;;;;;;;7.88;5.80;;;34.00;38.40;;;31.16;44.20;95843.03;4953600;28;20059;-68
2021/06/18 08:05:47;;;;;;;8.13;5.80;;;34.10;37.90;;;31.38;44.36;95842.00;4967817;28;20034;-65
2021/06/18 08:08:13;;;;;;;6.75;5.72;;;34.30;38.00;;;31.51;44.30;95843.72;4970675;28;20145;-65
2021/06/18 08:10:39;;;;;;;8.20;5.40;;;34.50;37.60;;;31.69;43.98;95841.69;4971082;28;20074;-65
2021/06/18 08:13:05;;;;;;;8.27;5.47;;;34.70;37.80;;;31.84;43.78;95837.59;4983660;28;20122;-66
2021/06/18 08:15:31;;;;;;;5.95;5.28;;;34.70;38.20;;;32.01;43.26;95842.91;4952040;28;20039;-68
2021/06/18 08:17:58;;;;;;;7.82;5.57;;;34.90;37.50;;;32.20;43.29;95837.78;4977046;28;20059;-66
2021/06/18 08:20:25;;;;;;;8.13;5.88;;;35.00;36.80;;;32.34;42.07;95839.44;4951095;28;20729;-66
2021/06/18 08:22:51;;;;;;;7.43;5.00;;;35.00;36.10;;;32.43;42.37;95834.72;4956183;28;20506;-67
2021/06/18 08:25:17;;;;;;;7.53;5.35;;;35.00;36.40;;;32.55;41.77;95827.38;4964023;28;20043;-65
2021/06/18 08:27:43;;;;;;;8.27;5.07;;;35.00;36.60;;;32.69;42.07;95831.72;4967968;28;20041;-68
2021/06/18 08:30:09;;;;;;;8.30;5.30;;;35.10;36.40;;;32.82;40.84;95826.00;4964078;28;20567;-66
2021/06/18 08:32:35;;;;;;;13.30;10.27;;;35.20;35.40;;;33.01;40.88;95827.38;4934547;28;20031;-67
2021/06/18 08:35:00;;;;;;;6.55;5.65;;;35.60;35.50;;;33.18;39.67;95827.97;4973673;28;20081;-67
2021/06/18 08:37:26;;;;;;;9.38;5.22;;;35.70;34.40;;;33.37;40.32;95830.16;4961685;28;20062;-67
2021/06/18 08:39:52;;;;;;;7.20;4.80;;;35.90;35.50;;;33.56;39.76;95826.06;4970432;28;20031;-69
2021/06/18 08:42:18;;;;;;;7.70;4.72;;;36.20;35.50;;;33.73;40.09;95831.25;4962991;28;20031;-67
2021/06/18 08:44:45;;;;;;;8.63;4.35;;;36.60;35.70;;;33.90;39.62;95833.72;4952067;28;20407;-66
2021/06/18 08:47:14;;;;;;;6.80;5.18;;;36.70;34.00;;;34.04;38.16;95836.09;4990091;28;20113;-67
2021/06/18 08:49:40;;;;;;;8.85;5.30;;;36.70;33.70;;;34.14;38.76;95840.25;4947086;28;20456;-71
2021/06/18 08:52:06;;;;;;;6.85;5.05;;;36.60;33.70;;;34.22;38.47;95842.88;4940908;28;20125;-66
2021/06/18 08:54:41;;;;;;;7.13;4.53;;;36.60;34.70;;;34.29;39.09;95842.25;4951840;28;20146;-66
2021/06/18 08:57:15;;;;;;;5.38;4.88;;;36.70;34.90;;;34.33;38.44;95838.47;4936184;28;20038;-66
2021/06/18 08:59:41;;;;;;;8.77;5.15;;;36.70;35.20;;;34.29;38.78;95842.25;4967347;28;20038;-67
2021/06/18 09:02:07;;;;;;;8.90;4.68;;;36.50;35.00;;;34.34;38.62;95844.72;4987216;28;20181;-66
2021/06/18 09:04:32;;;;;;;9.35;4.30;;;36.90;35.10;;;34.42;38.67;95843.84;4964765;28;20031;-67
2021/06/18 09:06:59;;;;;;;6.45;4.43;;;37.10;34.40;;;34.48;38.49;95839.69;4969377;28;20023;-66
2021/06/18 09:09:30;;;;;;;7.82;4.30;;;37.00;34.00;;;34.52;37.61;95840.59;4965431;28;20035;-66
2021/06/18 09:12:01;;;;;;;8.73;5.20;;;37.20;34.00;;;34.58;36.49;95852.84;4968131;28;20066;-66
2021/06/18 09:14:31;;;;;;;9.70;4.70;;;37.10;32.60;;;34.57;37.53;95845.78;4934644;28;20395;-67
2021/06/18 09:17:17;;;;;;;9.43;4.85;;;37.20;33.40;;;34.59;36.22;95848.97;4984417;28;20849;-66
2021/06/18 09:19:51;;;;;;;7.25;4.90;;;37.20;32.30;;;34.61;36.38;95849.41;4957890;28;20062;-65
2021/06/18 09:22:24;;;;;;;7.78;4.40;;;37.00;33.10;;;34.63;36.67;95851.81;4969066;28;20131;-66
2021/06/18 09:25:04;;;;;;;6.97;4.00;;;37.10;32.90;;;34.70;36.54;95852.78;4980561;28;20143;-68
2021/06/18 09:27:50;;;;;;;;;;;37.10;33.10;;;34.79;36.65;95851.81;4983718;28;20100;-67
2021/06/18 09:30:20;;;;;;;7.28;5.18;;;37.40;33.20;;;34.83;36.66;95850.78;4951122;28;20013;-66
2021/06/18 09:33:07;;;;;;;;;;;37.10;31.70;;;34.85;35.91;95853.19;4989554;28;20053;-66
2021/06/18 09:35:33;;;;;;;12.10;9.45;;;37.40;32.20;;;34.87;36.76;95850.91;4975550;28;19918;-67
2021/06/18 09:38:04;;;;;;;8.27;4.85;;;37.60;32.10;;;34.98;34.44;95847.28;4966977;28;20035;-67
2021/06/18 09:40:30;;;;;;;5.50;4.07;;;37.50;30.40;;;35.13;35.82;95845.72;4953377;28;20031;-67
2021/06/18 09:42:57;;;;;;;7.60;4.53;;;38.00;32.20;;;35.39;35.76;95839.72;4962970;28;20031;-67
2021/06/18 09:45:35;;;;;;;4.13;3.63;;;38.40;30.70;;;35.63;33.98;95840.66;4950645;28;20137;-67
2021/06/18 09:48:13;;;;;;;6.63;3.65;;;38.50;30.00;;;35.79;33.43;95835.97;4965786;28;20412;-68
2021/06/18 09:50:44;;;;;;;6.00;3.50;;;38.70;29.60;;;35.94;34.13;95842.53;4964915;28;20039;-70
2021/06/18 09:53:23;;;;;;;9.00;4.05;;;38.70;29.50;;;36.05;32.94;95838.91;4951257;28;20108;-66
2021/06/18 09:56:10;;;;;;;8.40;4.38;;;39.00;28.70;;;36.17;32.11;95846.16;4948688;28;20566;-67
2021/06/18 09:58:37;;;;;;;5.00;3.42;;;38.90;28.00;;;36.23;32.99;95850.22;4949781;28;20063;-68
2021/06/18 10:01:18;;;;;;;6.47;3.40;;;38.90;28.10;;;36.38;31.46;95846.63;4948799;28;20110;-69
2021/06/18 10:04:16;;;;;;;5.88;2.92;;;39.30;27.20;;;36.74;31.26;95831.66;4951140;28;20047;-73
2021/06/18 10:06:43;;;;;;;6.47;3.60;;;40.20;26.90;;;37.15;32.82;95825.72;4941597;28;20042;-73
2021/06/18 10:09:10;;;;;;;4.80;3.78;;;40.60;27.10;;;37.56;31.94;95832.25;4983950;28;20038;-73
2021/06/18 10:11:39;;;;;;;4.43;3.58;;;41.00;26.50;;;37.99;32.16;95836.41;4963533;28;20034;-72
2021/06/18 10:14:05;;;;;;;8.55;3.10;;;41.30;26.40;;;38.39;30.50;95837.75;4965660;28;20028;-79
2021/06/18 10:16:31;;;;;;;5.30;3.13;;;41.40;25.50;;;38.64;29.55;95836.09;4965938;28;20045;-76
2021/06/18 10:18:58;;;;;;;5.75;4.25;;;41.30;24.60;;;38.85;29.48;95828.06;4945865;28;20106;-75
2021/06/18 10:21:24;;;;;;;7.10;3.53;;;41.60;25.10;;;39.07;28.96;95828.28;4953887;28;20529;-70